Time;durP1;ratioP1;P1;durP2;ratioP2;P2;SDS_P1;SDS_P2;PMS_P1;PMS_P2;Temp;Humidity;BMP_temperature;BMP_pressure;BME280_temperature;BME280_humidity;BME280_pressure;Samples;Min_cycle;Max_cycle;Signal;HPM_P1;HPM_P2
2022/12/27 00:02:01;;;;;;;11.90;5.87;;;;;;;;;;5096049;28;20194;-79
2022/12/27 00:04:27;;;;;;;13.53;5.90;;;;;;;;;;5097304;28;20182;-79
2022/12/27 00:06:53;;;;;;;10.17;5.33;;;;;;;;;;5117239;28;20174;-79
2022/12/27 00:09:19;;;;;;;12.83;5.43;;;;;;;;;;5115839;28;20200;-78
2022/12/27 00:11:46;;;;;;;12.33;5.90;;;;;;;;;;5115848;28;20258;-78
2022/12/27 00:14:12;;;;;;;23.70;6.00;;;;;;;;;;5117278;28;20177;-78
2022/12/27 00:16:38;;;;;;;12.07;5.03;;;;;;;;;;5116017;28;20237;-78
2022/12/27 00:19:04;;;;;;;13.17;5.37;;;;;;;;;;5115985;28;20209;-78
2022/12/27 00:21:31;;;;;;;10.97;5.33;;;;;;;;;;5095495;28;20198;-78
2022/12/27 00:23:57;;;;;;;11.17;5.63;;;;;;;;;;5102283;28;20185;-78
2022/12/27 00:26:25;;;;;;;12.57;6.10;;;;;;;;;;5099032;28;20231;-79
2022/12/27 00:28:51;;;;;;;15.13;6.33;;;;;;;;;;5116559;28;20193;-79
2022/12/27 00:31:19;;;;;;;17.43;6.77;;;;;;;;;;5109015;28;20269;-79
2022/12/27 00:33:46;;;;;;;17.33;6.77;;;;;;;;;;5116053;28;20207;-79
2022/12/27 00:36:14;;;;;;;15.13;6.40;;;;;;;;;;5109769;28;20231;-79
2022/12/27 00:38:40;;;;;;;17.77;6.47;;;;;;;;;;5116741;28;20202;-79
2022/12/27 00:41:07;;;;;;;13.60;6.07;;;;;;;;;;5115742;28;20189;-79
2022/12/27 00:43:33;;;;;;;13.73;5.87;;;;;;;;;;5115691;28;20190;-83
2022/12/27 00:45:59;;;;;;;17.93;5.87;;;;;;;;;;5115525;28;20177;-83
2022/12/27 00:48:25;;;;;;;13.13;6.17;;;;;;;;;;5115515;28;20190;-83
2022/12/27 00:50:56;;;;;;;13.77;6.90;;;;;;;;;;5115749;28;20224;-83
2022/12/27 00:53:22;;;;;;;15.13;5.93;;;;;;;;;;5116207;28;20197;-83
2022/12/27 00:55:48;;;;;;;16.30;6.40;;;;;;;;;;5116626;28;20174;-82
2022/12/27 00:58:14;;;;;;;14.93;6.87;;;;;;;;;;5098284;28;20210;-83
2022/12/27 01:00:40;;;;;;;13.77;6.43;;;;;;;;;;5098318;28;20198;-83
2022/12/27 01:03:06;;;;;;;16.63;6.37;;;;;;;;;;5098536;28;20182;-82
2022/12/27 01:05:35;;;;;;;15.60;6.77;;;;;;;;;;5115123;28;20201;-83
2022/12/27 01:08:01;;;;;;;14.00;6.30;;;;;;;;;;5116127;28;20181;-82
2022/12/27 01:10:27;;;;;;;18.53;6.53;;;;;;;;;;5098299;28;20277;-82
2022/12/27 01:12:53;;;;;;;9.77;5.40;;;;;;;;;;5098096;28;20192;-79
2022/12/27 01:15:19;;;;;;;13.73;5.77;;;;;;;;;;5114919;28;20232;-78
2022/12/27 01:17:45;;;;;;;13.93;5.90;;;;;;;;;;5114173;28;20230;-78
2022/12/27 01:20:11;;;;;;;11.77;5.97;;;;;;;;;;5097928;28;20178;-78
2022/12/27 01:22:37;;;;;;;13.43;6.27;;;;;;;;;;5098140;28;20193;-78
2022/12/27 01:25:03;;;;;;;15.53;6.60;;;;;;;;;;5114764;28;20178;-78
2022/12/27 01:27:29;;;;;;;13.57;7.03;;;;;;;;;;5097626;28;20182;-78
2022/12/27 01:29:55;;;;;;;14.80;6.60;;;;;;;;;;5115886;28;20185;-78
2022/12/27 01:32:21;;;;;;;18.20;6.80;;;;;;;;;;5097507;28;20220;-78
2022/12/27 01:34:47;;;;;;;14.03;6.57;;;;;;;;;;5115458;28;20177;-79
2022/12/27 01:37:13;;;;;;;22.10;7.00;;;;;;;;;;5097438;28;20182;-79
2022/12/27 01:39:39;;;;;;;14.77;6.43;;;;;;;;;;5077204;28;20210;-79
2022/12/27 01:44:54;;;;;;;13.20;6.43;;;;;;;;;;5107896;28;20315;-79
2022/12/27 01:47:26;;;;;;;14.47;6.37;;;;;;;;;;5114060;28;20215;-79
2022/12/27 01:50:09;;;;;;;14.00;6.77;;;;;;;;;;5115232;28;20251;-79
2022/12/27 01:52:40;;;;;;;12.73;6.37;;;;;;;;;;5111616;28;20216;-80
2022/12/27 01:55:10;;;;;;;14.00;6.87;;;;;;;;;;5116248;27;20184;-80
2022/12/27 01:57:36;;;;;;;16.03;6.90;;;;;;;;;;5115051;28;20174;-80
2022/12/27 02:00:02;;;;;;;14.43;6.13;;;;;;;;;;5114131;28;20185;-80
2022/12/27 02:02:28;;;;;;;14.43;6.50;;;;;;;;;;5096946;28;20174;-80
2022/12/27 02:04:54;;;;;;;14.33;6.83;;;;;;;;;;5113848;28;20209;-80
2022/12/27 02:07:25;;;;;;;16.80;7.00;;;;;;;;;;5097503;28;20177;-79
2022/12/27 02:09:55;;;;;;;12.67;6.63;;;;;;;;;;5117765;27;20177;-79
2022/12/27 02:12:22;;;;;;;12.10;6.73;;;;;;;;;;5124539;27;20195;-79
2022/12/27 02:14:48;;;;;;;12.47;6.17;;;;;;;;;;5114839;28;20239;-79
2022/12/27 02:17:16;;;;;;;18.47;7.33;;;;;;;;;;5113848;28;20218;-80
2022/12/27 02:19:45;;;;;;;16.73;7.37;;;;;;;;;;5108877;28;20214;-80
2022/12/27 02:22:18;;;;;;;11.03;7.00;;;;;;;;;;5111097;28;20227;-83
2022/12/27 02:24:46;;;;;;;14.67;6.80;;;;;;;;;;5111610;28;20185;-83
2022/12/27 02:27:27;;;;;;;22.03;7.63;;;;;;;;;;5111494;28;20204;-84
2022/12/27 02:30:02;;;;;;;15.77;7.50;;;;;;;;;;5113009;28;20184;-83
2022/12/27 02:32:34;;;;;;;20.67;8.03;;;;;;;;;;5104736;28;20170;-83
2022/12/27 02:35:13;;;;;;;19.30;8.07;;;;;;;;;;5094631;28;20174;-83
2022/12/27 02:37:42;;;;;;;19.13;8.13;;;;;;;;;;5112840;27;20184;-80
2022/12/27 02:54:14;;;;;;;14.00;7.70;;;;;;;;;;5112957;28;20307;-79
2022/12/27 02:57:09;;;;;;;16.23;7.80;;;;;;;;;;5113134;28;20173;-79
2022/12/27 03:03:19;;;;;;;14.77;7.57;;;;;;;;;;5092640;28;20221;-79
2022/12/27 03:05:37;;;;;;;13.17;7.20;;;;;;;;;;5096739;28;20246;-77
2022/12/27 03:08:09;;;;;;;14.83;7.43;;;;;;;;;;5113079;28;20181;-77
2022/12/27 03:16:32;;;;;;;16.53;7.63;;;;;;;;;;5114506;28;20224;-77
2022/12/27 03:19:02;;;;;;;16.80;7.37;;;;;;;;;;5099162;28;20264;-77
2022/12/27 03:27:16;;;;;;;18.03;8.03;;;;;;;;;;5114232;28;20196;-77
2022/12/27 03:33:11;;;;;;;13.93;6.57;;;;;;;;;;5113771;28;20236;-77
2022/12/27 03:35:42;;;;;;;17.17;6.20;;;;;;;;;;5113682;28;20178;-77
2022/12/27 03:38:11;;;;;;;14.90;6.47;;;;;;;;;;5112743;28;20209;-78
2022/12/27 03:40:38;;;;;;;11.90;6.10;;;;;;;;;;5114873;28;20216;-78
2022/12/27 03:43:10;;;;;;;12.47;6.67;;;;;;;;;;5117723;28;20192;-78
2022/12/27 03:48:55;;;;;;;17.17;6.63;;;;;;;;;;5114202;28;20195;-77
2022/12/27 03:51:23;;;;;;;15.93;6.50;;;;;;;;;;5106548;28;20174;-77
2022/12/27 03:53:51;;;;;;;17.20;7.57;;;;;;;;;;5096429;28;20235;-77
2022/12/27 03:56:17;;;;;;;16.83;8.43;;;;;;;;;;5096300;28;20175;-77
2022/12/27 03:58:43;;;;;;;14.73;8.30;;;;;;;;;;5095965;28;20210;-77
2022/12/27 04:01:09;;;;;;;21.47;8.93;;;;;;;;;;5079249;28;20274;-77
2022/12/27 04:03:35;;;;;;;27.37;8.67;;;;;;;;;;5095899;28;20206;-77
2022/12/27 04:06:01;;;;;;;21.83;9.43;;;;;;;;;;5079460;28;20175;-77
2022/12/27 04:35:51;;;;;;;17.90;8.10;;;;;;;;;;5095808;28;20189;-77
2022/12/27 04:38:17;;;;;;;16.63;8.10;;;;;;;;;;5095180;28;20202;-77
2022/12/27 04:57:16;;;;;;;16.23;7.07;;;;;;;;;;5115701;28;20230;-82
2022/12/27 05:02:27;;;;;;;15.30;7.10;;;;;;;;;;5115574;28;20234;-81
2022/12/27 05:04:53;;;;;;;14.73;6.80;;;;;;;;;;5115103;28;20170;-82
2022/12/27 05:15:33;;;;;;;14.57;6.57;;;;;;;;;;5094927;28;20209;-78
2022/12/27 05:17:59;;;;;;;17.27;8.00;;;;;;;;;;5077392;28;20230;-78
2022/12/27 05:20:25;;;;;;;16.77;7.37;;;;;;;;;;5077988;28;20183;-78
2022/12/27 05:25:40;;;;;;;16.87;7.33;;;;;;;;;;5095674;28;20219;-81
2022/12/27 05:28:08;;;;;;;16.30;7.20;;;;;;;;;;5095543;28;20197;-81
2022/12/27 05:30:35;;;;;;;17.17;7.20;;;;;;;;;;5095540;28;20229;-82
2022/12/27 05:33:01;;;;;;;18.53;7.37;;;;;;;;;;5094106;28;20174;-82
2022/12/27 05:35:27;;;;;;;20.93;7.23;;;;;;;;;;5077377;28;20186;-82
2022/12/27 05:37:54;;;;;;;18.30;7.33;;;;;;;;;;5077225;28;20244;-81
2022/12/27 05:40:20;;;;;;;16.97;7.37;;;;;;;;;;5094293;28;20284;-82
2022/12/27 05:42:47;;;;;;;15.17;7.03;;;;;;;;;;5077469;28;20182;-82
2022/12/27 05:45:13;;;;;;;20.80;7.17;;;;;;;;;;5077607;28;20178;-81
2022/12/27 05:47:39;;;;;;;22.80;6.93;;;;;;;;;;5077150;28;20182;-78
2022/12/27 05:50:05;;;;;;;17.63;7.40;;;;;;;;;;5093966;28;20205;-78
2022/12/27 05:52:31;;;;;;;15.53;7.27;;;;;;;;;;5093999;28;20179;-78
2022/12/27 05:54:57;;;;;;;11.90;6.97;;;;;;;;;;5094070;28;20171;-79
2022/12/27 05:57:24;;;;;;;21.53;7.90;;;;;;;;;;5077411;28;20205;-78
2022/12/27 05:59:50;;;;;;;20.07;7.40;;;;;;;;;;5093701;28;20206;-77
2022/12/27 06:02:16;;;;;;;16.93;7.30;;;;;;;;;;5076697;28;20205;-77
2022/12/27 06:04:42;;;;;;;19.27;7.03;;;;;;;;;;5093799;28;20202;-77
2022/12/27 06:07:10;;;;;;;21.67;7.20;;;;;;;;;;5093779;28;20174;-77
2022/12/27 06:09:36;;;;;;;16.07;7.07;;;;;;;;;;5093558;28;20187;-77
2022/12/27 06:12:02;;;;;;;15.23;7.67;;;;;;;;;;5093622;28;20198;-77
2022/12/27 06:14:28;;;;;;;17.20;7.47;;;;;;;;;;5106638;27;20174;-77
2022/12/27 06:16:54;;;;;;;20.17;7.50;;;;;;;;;;5113968;28;20222;-77
2022/12/27 06:19:20;;;;;;;14.93;6.77;;;;;;;;;;5097092;28;20217;-77
2022/12/27 06:21:46;;;;;;;21.10;7.33;;;;;;;;;;5097203;28;20227;-77
2022/12/27 06:24:12;;;;;;;16.20;6.93;;;;;;;;;;5113848;28;20185;-77
2022/12/27 06:26:38;;;;;;;20.20;7.50;;;;;;;;;;5114840;28;20178;-77
2022/12/27 06:29:04;;;;;;;16.67;6.47;;;;;;;;;;5077523;28;20197;-77
2022/12/27 06:31:30;;;;;;;15.47;6.87;;;;;;;;;;5076433;28;20213;-78
2022/12/27 06:33:56;;;;;;;17.10;6.80;;;;;;;;;;5093135;28;20266;-81
2022/12/27 06:36:25;;;;;;;18.23;6.60;;;;;;;;;;5076426;28;20189;-82
2022/12/27 06:38:51;;;;;;;13.83;6.63;;;;;;;;;;5094270;28;20206;-82
2022/12/27 06:41:17;;;;;;;13.03;6.00;;;;;;;;;;5077005;28;20212;-82
2022/12/27 06:43:44;;;;;;;17.63;6.53;;;;;;;;;;5100537;28;20180;-82
2022/12/27 06:46:11;;;;;;;16.93;6.60;;;;;;;;;;5114594;28;20169;-82
2022/12/27 06:48:37;;;;;;;16.30;6.47;;;;;;;;;;5114575;28;20177;-79
2022/12/27 06:51:07;;;;;;;23.60;7.37;;;;;;;;;;5096615;28;20182;-79
2022/12/27 06:53:35;;;;;;;21.33;6.80;;;;;;;;;;5103569;28;20190;-78
2022/12/27 06:56:08;;;;;;;19.37;6.40;;;;;;;;;;5113542;28;20170;-78
2022/12/27 06:58:34;;;;;;;16.53;6.90;;;;;;;;;;5113100;28;20206;-78
2022/12/27 07:01:14;;;;;;;18.37;6.67;;;;;;;;;;5113220;28;20223;-78
2022/12/27 07:03:40;;;;;;;14.83;6.33;;;;;;;;;;5113101;28;20189;-78
2022/12/27 07:06:07;;;;;;;18.13;6.70;;;;;;;;;;5080256;28;20183;-77
2022/12/27 07:08:34;;;;;;;14.77;6.43;;;;;;;;;;5092932;28;20185;-77
2022/12/27 07:11:01;;;;;;;18.87;6.63;;;;;;;;;;5093987;28;20175;-77
2022/12/27 07:13:27;;;;;;;19.03;6.53;;;;;;;;;;5092741;28;20186;-77
2022/12/27 07:15:53;;;;;;;15.70;6.67;;;;;;;;;;5103831;28;20178;-77
2022/12/27 07:18:19;;;;;;;16.60;6.73;;;;;;;;;;5107856;28;20214;-77
2022/12/27 07:20:45;;;;;;;19.33;6.77;;;;;;;;;;5110210;27;20179;-77
2022/12/27 07:23:13;;;;;;;21.53;7.20;;;;;;;;;;5091084;28;20193;-78
2022/12/27 07:25:39;;;;;;;16.97;6.97;;;;;;;;;;5117235;28;20181;-78
2022/12/27 07:28:05;;;;;;;18.33;6.83;;;;;;;;;;5100375;28;20277;-78
2022/12/27 07:30:31;;;;;;;14.87;6.50;;;;;;;;;;5117027;28;20182;-78
2022/12/27 07:32:57;;;;;;;19.63;6.70;;;;;;;;;;5101952;28;20179;-78
2022/12/27 07:35:23;;;;;;;17.57;6.40;;;;;;;;;;5096507;28;20179;-78
2022/12/27 07:37:49;;;;;;;18.67;6.90;;;;;;;;;;5105843;28;20186;-78
2022/12/27 07:40:15;;;;;;;17.47;6.47;;;;;;;;;;5117927;28;20201;-78
2022/12/27 07:42:41;;;;;;;17.53;7.03;;;;;;;;;;5099499;28;20204;-79
2022/12/27 07:45:07;;;;;;;23.73;7.27;;;;;;;;;;5100565;28;20183;-78
2022/12/27 07:47:33;;;;;;;24.47;8.13;;;;;;;;;;5096173;28;20209;-78
2022/12/27 07:49:59;;;;;;;26.67;9.13;;;;;;;;;;5096109;28;20189;-78
2022/12/27 07:52:25;;;;;;;21.73;8.90;;;;;;;;;;5096091;28;20191;-78
2022/12/27 07:54:51;;;;;;;26.23;8.63;;;;;;;;;;5095916;28;20187;-78
2022/12/27 07:57:17;;;;;;;21.30;8.73;;;;;;;;;;5104988;27;20182;-77
2022/12/27 07:59:43;;;;;;;19.40;7.93;;;;;;;;;;5099168;28;20236;-77
2022/12/27 08:02:09;;;;;;;22.27;8.87;;;;;;;;;;5120067;27;20186;-77
2022/12/27 08:04:38;;;;;;;23.83;9.07;;;;;;;;;;5119785;27;20222;-77
2022/12/27 08:07:15;;;;;;;28.60;10.40;;;;;;;;;;5128625;27;20170;-77
2022/12/27 08:09:42;;;;;;;30.90;10.40;;;;;;;;;;5131491;27;20200;-77
2022/12/27 08:12:09;;;;;;;26.83;10.80;;;;;;;;;;5115725;28;20181;-82
2022/12/27 08:14:35;;;;;;;22.50;9.73;;;;;;;;;;5117313;28;20176;-82
2022/12/27 08:17:21;;;;;;;22.10;9.23;;;;;;;;;;5135280;27;20220;-82
2022/12/27 08:19:47;;;;;;;20.77;9.47;;;;;;;;;;5136497;27;20220;-81
2022/12/27 08:22:14;;;;;;;22.47;9.53;;;;;;;;;;5136988;27;20173;-82
2022/12/27 08:24:40;;;;;;;21.40;9.90;;;;;;;;;;5136571;27;20181;-81
2022/12/27 08:27:06;;;;;;;22.87;10.57;;;;;;;;;;5136474;27;20177;-82
2022/12/27 08:29:32;;;;;;;24.70;10.73;;;;;;;;;;5136323;27;20173;-78
2022/12/27 08:31:58;;;;;;;30.73;11.27;;;;;;;;;;5114597;22;20257;-77
2022/12/27 08:34:24;;;;;;;33.43;11.33;;;;;;;;;;5108629;28;20217;-77
2022/12/27 08:36:51;;;;;;;30.97;11.70;;;;;;;;;;5115770;28;20202;-77
2022/12/27 08:39:17;;;;;;;23.53;10.97;;;;;;;;;;5108691;28;20259;-79
2022/12/27 08:41:43;;;;;;;28.57;11.73;;;;;;;;;;5113384;28;20208;-79
2022/12/27 08:44:09;;;;;;;26.63;11.07;;;;;;;;;;5076289;28;20187;-79
2022/12/27 08:46:36;;;;;;;23.80;10.07;;;;;;;;;;5097742;27;20182;-77
2022/12/27 08:49:02;;;;;;;32.27;18.37;;;;;;;;;;5095506;28;20174;-77
2022/12/27 08:51:28;;;;;;;28.27;12.33;;;;;;;;;;5094950;28;20183;-79
2022/12/27 08:53:54;;;;;;;24.43;10.10;;;;;;;;;;5094780;28;20194;-77
2022/12/27 08:56:20;;;;;;;20.03;8.60;;;;;;;;;;5078327;28;20182;-77
2022/12/27 08:58:49;;;;;;;24.73;9.30;;;;;;;;;;5077742;28;20210;-77
2022/12/27 09:01:15;;;;;;;18.10;8.57;;;;;;;;;;5094924;28;20179;-77
2022/12/27 09:03:41;;;;;;;19.37;10.13;;;;;;;;;;5095015;28;20179;-78
2022/12/27 09:06:08;;;;;;;16.17;7.93;;;;;;;;;;5078228;28;20284;-77
2022/12/27 09:08:34;;;;;;;17.43;6.50;;;;;;;;;;5077579;28;20186;-77
2022/12/27 09:11:14;;;;;;;14.00;6.20;;;;;;;;;;5094398;28;20191;-77
2022/12/27 09:13:41;;;;;;;14.33;6.50;;;;;;;;;;5074370;28;20193;-77
2022/12/27 09:16:09;;;;;;;13.73;6.67;;;;;;;;;;5089757;28;20192;-78
2022/12/27 09:18:35;;;;;;;15.20;6.77;;;;;;;;;;5074135;28;20211;-78
2022/12/27 09:21:12;;;;;;;15.73;6.73;;;;;;;;;;5077399;28;20186;-77
2022/12/27 09:23:39;;;;;;;19.00;6.80;;;;;;;;;;5094088;28;20185;-78
2022/12/27 09:26:12;;;;;;;15.60;7.30;;;;;;;;;;5093888;28;20178;-78
2022/12/27 09:28:38;;;;;;;16.03;7.03;;;;;;;;;;5086542;28;20190;-78
2022/12/27 09:31:05;;;;;;;14.83;7.30;;;;;;;;;;5080656;28;20241;-79
2022/12/27 09:33:31;;;;;;;15.90;6.80;;;;;;;;;;5074738;28;20194;-78
2022/12/27 09:36:01;;;;;;;14.73;7.00;;;;;;;;;;5073610;28;20195;-79
2022/12/27 09:38:27;;;;;;;17.93;8.17;;;;;;;;;;5072892;28;20211;-78
2022/12/27 09:40:54;;;;;;;16.77;7.30;;;;;;;;;;5073460;28;20202;-79
2022/12/27 09:43:24;;;;;;;12.90;7.03;;;;;;;;;;5093210;28;20226;-78
2022/12/27 09:45:52;;;;;;;15.20;7.10;;;;;;;;;;5093274;28;20189;-79
2022/12/27 09:48:27;;;;;;;14.50;6.67;;;;;;;;;;5093528;28;20216;-78
2022/12/27 09:50:56;;;;;;;18.73;7.57;;;;;;;;;;5094038;28;20186;-78
2022/12/27 09:53:28;;;;;;;16.07;7.17;;;;;;;;;;5095155;28;20182;-82
2022/12/27 09:55:56;;;;;;;18.00;8.57;;;;;;;;;;5093987;28;20174;-83
2022/12/27 09:58:22;;;;;;;15.37;7.77;;;;;;;;;;5091279;28;20194;-84
2022/12/27 10:00:51;;;;;;;19.57;9.07;;;;;;;;;;5093626;28;20175;-83
2022/12/27 10:03:19;;;;;;;16.63;8.30;;;;;;;;;;5076865;28;20179;-78
2022/12/27 10:05:49;;;;;;;18.67;7.77;;;;;;;;;;5093382;28;20209;-79
2022/12/27 10:08:33;;;;;;;14.90;8.00;;;;;;;;;;5093846;28;20182;-78
2022/12/27 10:11:35;;;;;;;15.03;7.77;;;;;;;;;;5093484;28;20178;-83
2022/12/27 10:14:21;;;;;;;12.70;8.00;;;;;;;;;;5091974;28;20311;-84
2022/12/27 10:16:47;;;;;;;21.03;8.37;;;;;;;;;;5032720;28;20210;-84
2022/12/27 10:19:19;;;;;;;15.73;7.63;;;;;;;;;;5086467;28;20238;-84
2022/12/27 10:21:54;;;;;;;15.20;8.47;;;;;;;;;;5076434;28;20203;-80
2022/12/27 10:24:23;;;;;;;14.30;8.17;;;;;;;;;;5084115;28;20182;-80
2022/12/27 10:26:50;;;;;;;18.23;9.30;;;;;;;;;;5092932;28;20186;-80
2022/12/27 10:29:23;;;;;;;18.20;9.43;;;;;;;;;;5093964;28;20182;-80
2022/12/27 10:31:50;;;;;;;15.17;9.17;;;;;;;;;;5093148;28;20222;-80
2022/12/27 10:34:22;;;;;;;16.80;10.67;;;;;;;;;;5093127;28;20185;-80
2022/12/27 10:36:49;;;;;;;17.10;11.03;;;;;;;;;;5091036;28;20273;-80
2022/12/27 10:39:19;;;;;;;22.83;12.13;;;;;;;;;;5092638;28;20221;-80
2022/12/27 10:42:04;;;;;;;20.53;12.93;;;;;;;;;;5094126;28;20174;-80
2022/12/27 10:44:30;;;;;;;18.17;12.47;;;;;;;;;;5092211;28;20190;-80
2022/12/27 10:46:56;;;;;;;21.67;13.67;;;;;;;;;;5072381;28;20182;-80
2022/12/27 10:49:25;;;;;;;22.83;15.68;;;;;;;;;;5055617;28;20438;-81
2022/12/27 10:51:52;;;;;;;24.23;13.13;;;;;;;;;;5090266;28;20182;-80
2022/12/27 10:54:28;;;;;;;17.70;12.33;;;;;;;;;;5087606;28;20179;-80
2022/12/27 10:56:55;;;;;;;18.27;12.33;;;;;;;;;;5091407;28;20266;-80
2022/12/27 10:59:28;;;;;;;18.10;11.63;;;;;;;;;;5096860;28;20256;-80
2022/12/27 11:02:00;;;;;;;21.60;11.80;;;;;;;;;;5097151;28;20175;-80
2022/12/27 11:04:27;;;;;;;17.23;11.02;;;;;;;;;;5097065;28;20401;-81
2022/12/27 11:07:00;;;;;;;14.70;10.23;;;;;;;;;;5096806;28;20178;-80
2022/12/27 11:09:30;;;;;;;18.37;9.87;;;;;;;;;;5092933;28;20178;-80
2022/12/27 11:12:15;;;;;;;14.50;9.10;;;;;;;;;;5096326;28;20223;-80
2022/12/27 11:14:53;;;;;;;15.93;8.07;;;;;;;;;;5090429;28;20231;-80
2022/12/27 11:17:21;;;;;;;15.23;8.07;;;;;;;;;;5096743;28;20182;-84
2022/12/27 11:19:47;;;;;;;16.50;8.07;;;;;;;;;;5096843;28;20210;-83
2022/12/27 11:22:13;;;;;;;13.40;7.63;;;;;;;;;;5096761;28;20179;-83
2022/12/27 11:24:45;;;;;;;11.00;7.50;;;;;;;;;;5096725;28;20179;-84
2022/12/27 11:27:20;;;;;;;13.93;8.50;;;;;;;;;;5097330;28;20166;-83
2022/12/27 11:29:46;;;;;;;13.43;8.47;;;;;;;;;;5096948;28;20185;-83
2022/12/27 11:32:13;;;;;;;16.97;8.40;;;;;;;;;;5078835;28;20240;-79
2022/12/27 11:34:43;;;;;;;14.03;7.90;;;;;;;;;;5096747;28;20179;-79
2022/12/27 11:37:14;;;;;;;17.90;7.50;;;;;;;;;;5096093;28;20178;-79
2022/12/27 11:39:45;;;;;;;14.50;7.37;;;;;;;;;;5096432;28;20297;-79
2022/12/27 11:42:17;;;;;;;14.60;7.67;;;;;;;;;;5096823;28;20206;-79
2022/12/27 11:44:50;;;;;;;15.20;8.10;;;;;;;;;;5096443;28;20400;-79
2022/12/27 11:47:27;;;;;;;15.33;7.37;;;;;;;;;;5096065;28;20225;-79
2022/12/27 11:50:23;;;;;;;14.07;7.60;;;;;;;;;;5096279;28;20424;-80
2022/12/27 11:52:58;;;;;;;14.83;7.07;;;;;;;;;;5022927;28;20341;-80
2022/12/27 11:55:43;;;;;;;12.60;6.27;;;;;;;;;;5075651;28;20186;-80
2022/12/27 11:58:18;;;;;;;11.90;6.50;;;;;;;;;;5083509;28;20194;-80
2022/12/27 12:01:07;;;;;;;15.27;6.23;;;;;;;;;;5095384;28;20227;-80
2022/12/27 12:03:36;;;;;;;10.03;6.27;;;;;;;;;;5093334;28;20178;-80
2022/12/27 12:06:17;;;;;;;12.73;6.33;;;;;;;;;;5094111;28;20194;-79
2022/12/27 12:09:02;;;;;;;11.57;6.43;;;;;;;;;;5076499;28;20206;-79
2022/12/27 12:11:44;;;;;;;12.47;5.67;;;;;;;;;;5075181;28;20186;-80
2022/12/27 12:14:28;;;;;;;14.55;6.80;;;;;;;;;;5095093;28;20454;-80
2022/12/27 12:17:00;;;;;;;12.47;5.13;;;;;;;;;;5095435;28;20239;-80
2022/12/27 12:19:45;;;;;;;12.77;5.00;;;;;;;;;;5096580;28;20259;-80
2022/12/27 12:22:17;;;;;;;14.33;4.97;;;;;;;;;;5096838;28;20171;-79
2022/12/27 12:24:46;;;;;;;12.13;5.17;;;;;;;;;;5097330;28;20182;-79
2022/12/27 12:27:39;;;;;;;10.43;4.63;;;;;;;;;;5115912;28;20212;-79
2022/12/27 12:30:05;;;;;;;11.90;5.27;;;;;;;;;;5103309;27;20189;-79
2022/12/27 12:32:37;;;;;;;11.67;4.97;;;;;;;;;;5095344;28;20293;-79
2022/12/27 12:35:16;;;;;;;8.40;4.73;;;;;;;;;;5095109;28;20185;-79
2022/12/27 12:37:51;;;;;;;10.33;5.17;;;;;;;;;;5095167;28;20177;-79
2022/12/27 12:40:32;;;;;;;12.10;4.47;;;;;;;;;;5095224;28;20178;-79
2022/12/27 12:42:58;;;;;;;11.00;4.20;;;;;;;;;;5086592;28;20179;-81
2022/12/27 12:45:27;;;;;;;11.73;4.57;;;;;;;;;;5074963;28;20182;-81
